sensor_id;sensor_type;location;lat;lon;timestamp;pressure;altitude;pressure_sealevel;temperature;humidity
71915;BME280;60387;49.994;14.660;2023-07-30T00:02:14;97177.50;;;22.34;48.52
71915;BME280;60387;49.994;14.660;2023-07-30T00:04:47;97185.44;;;22.42;48.37
71915;BME280;60387;49.994;14.660;2023-07-30T00:07:20;97194.09;;;22.44;49.16
71915;BME280;60387;49.994;14.660;2023-07-30T00:09:54;97188.16;;;22.39;48.97
71915;BME280;60387;49.994;14.660;2023-07-30T00:12:27;97196.47;;;22.42;48.69
71915;BME280;60387;49.994;14.660;2023-07-30T00:15:00;97192.13;;;22.41;48.72
71915;BME280;60387;49.994;14.660;2023-07-30T00:17:33;97191.34;;;22.41;48.81
71915;BME280;60387;49.994;14.660;2023-07-30T00:20:08;97190.53;;;22.40;48.16
71915;BME280;60387;49.994;14.660;2023-07-30T00:22:41;97183.44;;;22.39;50.51
71915;BME280;60387;49.994;14.660;2023-07-30T00:25:14;97175.16;;;22.36;49.45
71915;BME280;60387;49.994;14.660;2023-07-30T00:27:48;97173.94;;;22.33;49.21
71915;BME280;60387;49.994;14.660;2023-07-30T00:30:21;97181.84;;;22.31;48.60
71915;BME280;60387;49.994;14.660;2023-07-30T00:32:54;97174.72;;;22.27;49.26
71915;BME280;60387;49.994;14.660;2023-07-30T00:35:28;97182.19;;;22.26;48.52
71915;BME280;60387;49.994;14.660;2023-07-30T00:38:01;97177.09;;;22.25;48.65
71915;BME280;60387;49.994;14.660;2023-07-30T00:40:40;97175.91;;;22.22;48.16
71915;BME280;60387;49.994;14.660;2023-07-30T00:43:13;97149.44;;;22.07;48.46
71915;BME280;60387;49.994;14.660;2023-07-30T00:45:46;97168.38;;;22.19;50.80
71915;BME280;60387;49.994;14.660;2023-07-30T00:48:20;97174.69;;;22.16;49.20
71915;BME280;60387;49.994;14.660;2023-07-30T00:50:53;97179.81;;;22.14;49.42
71915;BME280;60387;49.994;14.660;2023-07-30T00:53:27;97171.50;;;22.11;50.35
71915;BME280;60387;49.994;14.660;2023-07-30T00:56:01;97175.47;;;22.10;50.13
71915;BME280;60387;49.994;14.660;2023-07-30T00:58:34;97163.63;;;22.09;51.23
71915;BME280;60387;49.994;14.660;2023-07-30T01:01:08;97161.25;;;22.04;50.68
71915;BME280;60387;49.994;14.660;2023-07-30T01:03:42;97165.56;;;22.02;49.84
71915;BME280;60387;49.994;14.660;2023-07-30T01:06:15;97153.34;;;21.99;49.99
71915;BME280;60387;49.994;14.660;2023-07-30T01:08:48;97149.00;;;21.95;49.85
71915;BME280;60387;49.994;14.660;2023-07-30T01:11:22;97163.59;;;21.95;49.53
71915;BME280;60387;49.994;14.660;2023-07-30T01:13:55;97153.72;;;21.91;49.46
71915;BME280;60387;49.994;14.660;2023-07-30T01:16:29;97169.47;;;21.90;49.30
71915;BME280;60387;49.994;14.660;2023-07-30T01:19:03;97161.16;;;21.83;49.27
71915;BME280;60387;49.994;14.660;2023-07-30T01:21:37;97165.47;;;21.84;49.72
71915;BME280;60387;49.994;14.660;2023-07-30T01:24:10;97154.44;;;21.74;49.27
71915;BME280;60387;49.994;14.660;2023-07-30T01:26:45;97166.66;;;21.80;49.38
71915;BME280;60387;49.994;14.660;2023-07-30T01:29:40;97177.69;;;21.80;49.46
71915;BME280;60387;49.994;14.660;2023-07-30T01:32:15;97173.31;;;21.75;49.79
71915;BME280;60387;49.994;14.660;2023-07-30T01:34:53;97173.31;;;21.75;49.89
71915;BME280;60387;49.994;14.660;2023-07-30T01:37:28;97181.97;;;21.70;50.41
71915;BME280;60387;49.994;14.660;2023-07-30T01:40:03;97178.03;;;21.68;54.16
71915;BME280;60387;49.994;14.660;2023-07-30T01:42:36;97172.44;;;21.64;51.69
71915;BME280;60387;49.994;14.660;2023-07-30T01:45:10;97187.06;;;21.65;51.63
71915;BME280;60387;49.994;14.660;2023-07-30T01:47:43;97189.41;;;21.66;50.87
71915;BME280;60387;49.994;14.660;2023-07-30T01:50:16;97191.00;;;21.67;50.87
71915;BME280;60387;49.994;14.660;2023-07-30T01:52:49;97196.13;;;21.69;51.27
71915;BME280;60387;49.994;14.660;2023-07-30T01:55:23;97197.25;;;21.64;51.16
71915;BME280;60387;49.994;14.660;2023-07-30T01:57:56;97195.34;;;21.65;50.25
71915;BME280;60387;49.994;14.660;2023-07-30T02:00:29;97200.06;;;21.68;51.38
71915;BME280;60387;49.994;14.660;2023-07-30T02:03:03;97196.47;;;21.64;51.02
71915;BME280;60387;49.994;14.660;2023-07-30T02:05:36;97194.50;;;21.64;50.82
71915;BME280;60387;49.994;14.660;2023-07-30T02:08:09;97193.69;;;21.64;51.02
71915;BME280;60387;49.994;14.660;2023-07-30T02:10:42;97198.44;;;21.63;51.37
71915;BME280;60387;49.994;14.660;2023-07-30T02:13:16;97194.50;;;21.61;50.69
71915;BME280;60387;49.994;14.660;2023-07-30T02:15:49;97187.03;;;21.61;51.48
71915;BME280;60387;49.994;14.660;2023-07-30T02:18:22;97192.91;;;21.60;51.47
71915;BME280;60387;49.994;14.660;2023-07-30T02:20:56;97198.78;;;21.58;51.34
71915;BME280;60387;49.994;14.660;2023-07-30T02:23:29;97193.69;;;21.57;50.90
71915;BME280;60387;49.994;14.660;2023-07-30T02:26:02;97189.34;;;21.56;50.82
71915;BME280;60387;49.994;14.660;2023-07-30T02:28:36;97194.03;;;21.52;51.45
71915;BME280;60387;49.994;14.660;2023-07-30T02:31:09;97183.00;;;21.52;52.47
71915;BME280;60387;49.994;14.660;2023-07-30T02:33:42;97182.22;;;21.48;51.51
71915;BME280;60387;49.994;14.660;2023-07-30T02:36:15;97179.00;;;21.42;51.36
71915;BME280;60387;49.994;14.660;2023-07-30T02:38:49;97187.28;;;21.42;51.07
71915;BME280;60387;49.994;14.660;2023-07-30T02:41:22;97184.50;;;21.42;51.05
71915;BME280;60387;49.994;14.660;2023-07-30T02:43:55;97182.94;;;21.41;51.20
71915;BME280;60387;49.994;14.660;2023-07-30T02:46:28;97186.88;;;21.40;51.67
71915;BME280;60387;49.994;14.660;2023-07-30T02:49:02;97182.53;;;21.39;51.38
71915;BME280;60387;49.994;14.660;2023-07-30T02:51:35;97190.81;;;21.39;52.06
71915;BME280;60387;49.994;14.660;2023-07-30T02:54:08;97178.56;;;21.37;52.38
71915;BME280;60387;49.994;14.660;2023-07-30T02:56:43;97195.91;;;21.37;52.23
71915;BME280;60387;49.994;14.660;2023-07-30T02:59:16;97190.78;;;21.36;51.87
71915;BME280;60387;49.994;14.660;2023-07-30T03:01:49;97187.25;;;21.35;51.74
71915;BME280;60387;49.994;14.660;2023-07-30T03:04:22;97191.59;;;21.36;51.56
71915;BME280;60387;49.994;14.660;2023-07-30T03:06:56;97186.81;;;21.33;51.59
71915;BME280;60387;49.994;14.660;2023-07-30T03:09:29;97184.09;;;21.37;51.71
71915;BME280;60387;49.994;14.660;2023-07-30T03:12:03;97185.28;;;21.39;53.13
71915;BME280;60387;49.994;14.660;2023-07-30T03:14:36;97189.22;;;21.38;54.09
71915;BME280;60387;49.994;14.660;2023-07-30T03:17:09;97179.75;;;21.36;53.30
71915;BME280;60387;49.994;14.660;2023-07-30T03:19:43;97183.31;;;21.36;52.63
71915;BME280;60387;49.994;14.660;2023-07-30T03:22:16;97194.75;;;21.38;53.47
71915;BME280;60387;49.994;14.660;2023-07-30T03:24:49;97187.66;;;21.37;53.24
71915;BME280;60387;49.994;14.660;2023-07-30T03:27:22;97189.63;;;21.40;53.68
71915;BME280;60387;49.994;14.660;2023-07-30T03:29:56;97185.28;;;21.39;53.37
71915;BME280;60387;49.994;14.660;2023-07-30T03:32:29;97181.34;;;21.40;53.08
71915;BME280;60387;49.994;14.660;2023-07-30T03:35:02;97178.59;;;21.40;53.34
71915;BME280;60387;49.994;14.660;2023-07-30T03:37:36;97182.19;;;21.44;53.44
71915;BME280;60387;49.994;14.660;2023-07-30T03:40:09;97175.09;;;21.47;53.72
71915;BME280;60387;49.994;14.660;2023-07-30T03:42:44;97173.56;;;21.53;55.43
71915;BME280;60387;49.994;14.660;2023-07-30T03:45:17;97174.38;;;21.53;54.24
71915;BME280;60387;49.994;14.660;2023-07-30T03:47:50;97168.06;;;21.56;54.75
71915;BME280;60387;49.994;14.660;2023-07-30T03:50:23;97152.28;;;21.50;53.88
71915;BME280;60387;49.994;14.660;2023-07-30T03:52:57;97163.38;;;21.60;54.15
71915;BME280;60387;49.994;14.660;2023-07-30T03:55:30;97166.63;;;21.73;53.69
71915;BME280;60387;49.994;14.660;2023-07-30T03:58:03;97168.25;;;21.84;53.24
71915;BME280;60387;49.994;14.660;2023-07-30T04:00:39;97158.84;;;21.99;54.25
71915;BME280;60387;49.994;14.660;2023-07-30T04:03:13;97160.88;;;22.16;53.36
71915;BME280;60387;49.994;14.660;2023-07-30T04:05:46;97156.25;;;22.41;53.23
71915;BME280;60387;49.994;14.660;2023-07-30T04:08:19;97159.06;;;22.73;52.87
71915;BME280;60387;49.994;14.660;2023-07-30T04:10:53;97163.44;;;23.23;52.49
71915;BME280;60387;49.994;14.660;2023-07-30T04:13:26;97173.22;;;23.76;51.61
71915;BME280;60387;49.994;14.660;2023-07-30T04:15:59;97171.16;;;24.11;51.02
71915;BME280;60387;49.994;14.660;2023-07-30T04:18:32;97175.84;;;24.21;50.69
71915;BME280;60387;49.994;14.660;2023-07-30T04:21:06;97175.50;;;24.12;50.44
71915;BME280;60387;49.994;14.660;2023-07-30T04:23:39;97183.81;;;24.02;50.67
71915;BME280;60387;49.994;14.660;2023-07-30T04:26:12;97182.28;;;23.94;50.69
71915;BME280;60387;49.994;14.660;2023-07-30T04:28:45;97187.41;;;23.99;50.54
71915;BME280;60387;49.994;14.660;2023-07-30T04:31:19;97194.47;;;24.07;51.21
71915;BME280;60387;49.994;14.660;2023-07-30T04:33:52;97188.16;;;24.06;50.67
71915;BME280;60387;49.994;14.660;2023-07-30T04:36:25;97183.44;;;24.00;50.92
71915;BME280;60387;49.994;14.660;2023-07-30T04:38:59;97185.81;;;23.98;51.67
71915;BME280;60387;49.994;14.660;2023-07-30T04:41:32;97187.44;;;23.92;50.92
71915;BME280;60387;49.994;14.660;2023-07-30T04:44:05;97191.38;;;23.84;50.86
71915;BME280;60387;49.994;14.660;2023-07-30T04:46:38;97189.81;;;23.72;51.31
71915;BME280;60387;49.994;14.660;2023-07-30T04:49:12;97196.16;;;23.66;51.13
71915;BME280;60387;49.994;14.660;2023-07-30T04:51:45;97194.97;;;23.60;50.83
71915;BME280;60387;49.994;14.660;2023-07-30T04:54:18;97209.63;;;23.57;51.28
71915;BME280;60387;49.994;14.660;2023-07-30T04:56:51;97189.06;;;23.48;51.57
71915;BME280;60387;49.994;14.660;2023-07-30T04:59:25;97209.63;;;23.57;51.73
71915;BME280;60387;49.994;14.660;2023-07-30T05:01:58;97211.97;;;23.62;51.25
71915;BME280;60387;49.994;14.660;2023-07-30T05:04:32;97213.53;;;23.70;51.89
71915;BME280;60387;49.994;14.660;2023-07-30T05:07:05;97214.31;;;23.74;52.05
71915;BME280;60387;49.994;14.660;2023-07-30T05:09:38;97224.59;;;23.77;51.98
71915;BME280;60387;49.994;14.660;2023-07-30T05:12:12;97215.09;;;23.74;51.93
71915;BME280;60387;49.994;14.660;2023-07-30T05:14:45;97224.97;;;23.79;52.72
71915;BME280;60387;49.994;14.660;2023-07-30T05:17:18;97218.66;;;23.85;51.78
71915;BME280;60387;49.994;14.660;2023-07-30T05:19:51;97216.69;;;23.89;52.84
71915;BME280;60387;49.994;14.660;2023-07-30T05:22:25;97221.00;;;23.94;53.33
71915;BME280;60387;49.994;14.660;2023-07-30T05:24:58;97218.22;;;24.01;52.61
71915;BME280;60387;49.994;14.660;2023-07-30T05:27:31;97211.88;;;24.07;52.27
71915;BME280;60387;49.994;14.660;2023-07-30T05:30:05;97213.03;;;24.17;52.42
71915;BME280;60387;49.994;14.660;2023-07-30T05:32:39;97211.81;;;24.25;52.08
71915;BME280;60387;49.994;14.660;2023-07-30T05:35:12;97209.81;;;24.29;52.22
71915;BME280;60387;49.994;14.660;2023-07-30T05:37:45;97214.13;;;24.33;52.23
71915;BME280;60387;49.994;14.660;2023-07-30T05:40:18;97211.75;;;24.35;51.64
71915;BME280;60387;49.994;14.660;2023-07-30T05:42:52;97210.16;;;24.41;51.74
71915;BME280;60387;49.994;14.660;2023-07-30T05:45:25;97213.28;;;24.47;51.72
71915;BME280;60387;49.994;14.660;2023-07-30T05:47:58;97213.28;;;24.47;51.28
71915;BME280;60387;49.994;14.660;2023-07-30T05:50:32;97210.50;;;24.47;51.13
71915;BME280;60387;49.994;14.660;2023-07-30T05:53:05;97210.50;;;24.50;51.62
71915;BME280;60387;49.994;14.660;2023-07-30T05:55:41;97219.59;;;24.51;52.06
71915;BME280;60387;49.994;14.660;2023-07-30T05:58:14;97221.97;;;24.45;51.39
71915;BME280;60387;49.994;14.660;2023-07-30T06:00:48;97227.94;;;24.44;51.34
71915;BME280;60387;49.994;14.660;2023-07-30T06:03:21;97222.03;;;24.42;51.42
71915;BME280;60387;49.994;14.660;2023-07-30T06:05:54;97224.38;;;24.43;50.94
71915;BME280;60387;49.994;14.660;2023-07-30T06:08:28;97216.50;;;24.42;51.39
71915;BME280;60387;49.994;14.660;2023-07-30T06:11:04;97224.34;;;24.47;51.13
71915;BME280;60387;49.994;14.660;2023-07-30T06:13:37;97229.88;;;24.50;51.78
71915;BME280;60387;49.994;14.660;2023-07-30T06:16:11;97238.19;;;24.50;52.23
71915;BME280;60387;49.994;14.660;2023-07-30T06:18:44;97237.00;;;24.48;52.29
71915;BME280;60387;49.994;14.660;2023-07-30T06:21:17;97235.44;;;24.47;52.39
71915;BME280;60387;49.994;14.660;2023-07-30T06:23:51;97240.19;;;24.46;52.14
71915;BME280;60387;49.994;14.660;2023-07-30T06:26:24;97230.34;;;24.42;52.18
71915;BME280;60387;49.994;14.660;2023-07-30T06:28:57;97248.50;;;24.50;52.28
71915;BME280;60387;49.994;14.660;2023-07-30T06:31:30;97248.44;;;24.53;52.15
71915;BME280;60387;49.994;14.660;2023-07-30T06:34:04;97244.13;;;24.56;51.91
71915;BME280;60387;49.994;14.660;2023-07-30T06:36:37;97248.06;;;24.62;52.08
71915;BME280;60387;49.994;14.660;2023-07-30T06:39:10;97238.94;;;24.65;51.86
71915;BME280;60387;49.994;14.660;2023-07-30T06:41:44;97238.91;;;24.72;51.80
71915;BME280;60387;49.994;14.660;2023-07-30T06:44:17;97243.22;;;24.80;51.29
71915;BME280;60387;49.994;14.660;2023-07-30T06:46:50;97247.13;;;24.86;51.56
71915;BME280;60387;49.994;14.660;2023-07-30T06:49:24;97247.09;;;24.93;51.27
71915;BME280;60387;49.994;14.660;2023-07-30T06:51:57;97249.41;;;24.98;51.12
71915;BME280;60387;49.994;14.660;2023-07-30T06:54:30;97245.41;;;25.06;51.14
71915;BME280;60387;49.994;14.660;2023-07-30T06:57:04;97252.47;;;25.14;51.03
71915;BME280;60387;49.994;14.660;2023-07-30T06:59:37;97255.22;;;25.17;51.11
71915;BME280;60387;49.994;14.660;2023-07-30T07:02:10;97255.63;;;25.23;51.07
71915;BME280;60387;49.994;14.660;2023-07-30T07:04:44;97252.81;;;25.26;50.97
71915;BME280;60387;49.994;14.660;2023-07-30T07:07:17;97253.63;;;25.27;50.76
71915;BME280;60387;49.994;14.660;2023-07-30T07:09:50;97271.38;;;25.33;51.08
71915;BME280;60387;49.994;14.660;2023-07-30T07:12:24;97257.50;;;25.33;50.74
71915;BME280;60387;49.994;14.660;2023-07-30T07:14:57;97262.63;;;25.38;50.88
71915;BME280;60387;49.994;14.660;2023-07-30T07:17:30;97264.59;;;25.41;50.88
71915;BME280;60387;49.994;14.660;2023-07-30T07:20:04;97271.34;;;25.40;50.87
71915;BME280;60387;49.994;14.660;2023-07-30T07:22:38;97288.75;;;25.44;50.61
71915;BME280;60387;49.994;14.660;2023-07-30T07:25:11;97287.09;;;25.50;50.94
71915;BME280;60387;49.994;14.660;2023-07-30T07:27:44;97289.13;;;25.46;50.58
71915;BME280;60387;49.994;14.660;2023-07-30T07:30:18;97293.09;;;25.45;50.35
71915;BME280;60387;49.994;14.660;2023-07-30T07:32:52;97291.13;;;25.42;50.57
71915;BME280;60387;49.994;14.660;2023-07-30T07:35:25;97294.34;;;25.37;50.52
71915;BME280;60387;49.994;14.660;2023-07-30T07:37:59;97291.16;;;25.35;50.67
71915;BME280;60387;49.994;14.660;2023-07-30T07:40:38;97290.78;;;25.33;51.00
71915;BME280;60387;49.994;14.660;2023-07-30T07:43:12;97296.38;;;25.26;50.66
71915;BME280;60387;49.994;14.660;2023-07-30T07:45:45;97296.41;;;25.19;50.66
71915;BME280;60387;49.994;14.660;2023-07-30T07:48:18;97294.09;;;25.07;51.16
71915;BME280;60387;49.994;14.660;2023-07-30T07:50:52;97297.72;;;25.00;51.36
71915;BME280;60387;49.994;14.660;2023-07-30T07:53:25;97296.19;;;24.92;51.32
71915;BME280;60387;49.994;14.660;2023-07-30T07:55:58;97300.56;;;24.83;51.48
71915;BME280;60387;49.994;14.660;2023-07-30T07:58:31;97310.53;;;24.77;51.95
71915;BME280;60387;49.994;14.660;2023-07-30T08:01:05;97314.50;;;24.69;52.10
71915;BME280;60387;49.994;14.660;2023-07-30T08:03:38;97325.63;;;24.62;53.61
71915;BME280;60387;49.994;14.660;2023-07-30T08:06:11;97323.69;;;24.41;53.59
71915;BME280;60387;49.994;14.660;2023-07-30T08:08:45;97339.56;;;24.27;53.86
71915;BME280;60387;49.994;14.660;2023-07-30T08:11:18;97336.81;;;24.06;54.14
71915;BME280;60387;49.994;14.660;2023-07-30T08:13:51;97328.91;;;23.80;54.61
71915;BME280;60387;49.994;14.660;2023-07-30T08:16:24;97333.25;;;23.60;53.96
71915;BME280;60387;49.994;14.660;2023-07-30T08:18:58;97338.38;;;23.48;54.68
71915;BME280;60387;49.994;14.660;2023-07-30T08:21:31;97315.47;;;23.26;54.29
71915;BME280;60387;49.994;14.660;2023-07-30T08:24:04;97331.25;;;23.29;55.18
71915;BME280;60387;49.994;14.660;2023-07-30T08:26:38;97315.44;;;23.16;55.27
71915;BME280;60387;49.994;14.660;2023-07-30T08:29:11;97323.66;;;23.09;55.93
71915;BME280;60387;49.994;14.660;2023-07-30T08:31:44;97304.31;;;22.91;54.69
71915;BME280;60387;49.994;14.660;2023-07-30T08:34:17;97313.00;;;22.93;55.42
71915;BME280;60387;49.994;14.660;2023-07-30T08:36:51;97311.78;;;22.87;55.25
71915;BME280;60387;49.994;14.660;2023-07-30T08:39:24;97315.72;;;22.86;55.52
71915;BME280;60387;49.994;14.660;2023-07-30T08:41:57;97324.00;;;22.83;55.80
71915;BME280;60387;49.994;14.660;2023-07-30T08:44:31;97320.84;;;22.77;56.61
71915;BME280;60387;49.994;14.660;2023-07-30T08:47:04;97321.63;;;22.74;56.72
71915;BME280;60387;49.994;14.660;2023-07-30T08:49:38;97317.25;;;22.70;56.75
71915;BME280;60387;49.994;14.660;2023-07-30T08:52:11;97313.69;;;22.69;55.67
71915;BME280;60387;49.994;14.660;2023-07-30T08:54:46;97299.13;;;22.69;55.83
71915;BME280;60387;49.994;14.660;2023-07-30T08:57:20;97299.50;;;22.67;55.73
71915;BME280;60387;49.994;14.660;2023-07-30T09:00:00;97295.16;;;22.70;57.00
71915;BME280;60387;49.994;14.660;2023-07-30T09:02:39;97299.50;;;22.67;57.42
71915;BME280;60387;49.994;14.660;2023-07-30T09:05:14;97300.69;;;22.66;56.82
71915;BME280;60387;49.994;14.660;2023-07-30T09:07:48;97295.56;;;22.68;57.80
71915;BME280;60387;49.994;14.660;2023-07-30T09:10:22;97297.91;;;22.66;57.09
71915;BME280;60387;49.994;14.660;2023-07-30T09:12:57;97299.50;;;22.71;57.29
71915;BME280;60387;49.994;14.660;2023-07-30T09:15:36;97297.97;;;22.77;57.15
71915;BME280;60387;49.994;14.660;2023-07-30T09:18:10;97300.31;;;22.82;57.25
71915;BME280;60387;49.994;14.660;2023-07-30T09:20:43;97294.03;;;22.95;57.98
71915;BME280;60387;49.994;14.660;2023-07-30T09:23:17;97297.22;;;23.04;58.02
71915;BME280;60387;49.994;14.660;2023-07-30T09:25:50;97304.78;;;23.21;58.23
71915;BME280;60387;49.994;14.660;2023-07-30T09:28:30;97301.25;;;23.38;58.91
71915;BME280;60387;49.994;14.660;2023-07-30T09:31:05;97307.59;;;23.56;58.15
71915;BME280;60387;49.994;14.660;2023-07-30T09:33:42;97309.16;;;23.78;57.67
71915;BME280;60387;49.994;14.660;2023-07-30T09:36:18;97304.78;;;24.05;57.46
71915;BME280;60387;49.994;14.660;2023-07-30T09:38:52;97303.56;;;24.30;57.34
71915;BME280;60387;49.994;14.660;2023-07-30T09:41:25;97309.38;;;24.60;56.67
71915;BME280;60387;49.994;14.660;2023-07-30T09:43:58;97300.91;;;24.92;56.23
71915;BME280;60387;49.994;14.660;2023-07-30T09:46:32;97314.22;;;25.18;55.70
71915;BME280;60387;49.994;14.660;2023-07-30T09:49:05;97305.81;;;25.39;54.97
71915;BME280;60387;49.994;14.660;2023-07-30T09:51:39;97312.38;;;25.59;54.67
71915;BME280;60387;49.994;14.660;2023-07-30T09:54:13;97311.38;;;25.83;54.42
71915;BME280;60387;49.994;14.660;2023-07-30T09:56:47;97310.03;;;26.05;53.98
71915;BME280;60387;49.994;14.660;2023-07-30T09:59:20;97312.06;;;26.38;53.55
71915;BME280;60387;49.994;14.660;2023-07-30T10:01:55;97311.41;;;26.64;52.61
71915;BME280;60387;49.994;14.660;2023-07-30T10:04:29;97312.66;;;26.89;52.87
71915;BME280;60387;49.994;14.660;2023-07-30T10:07:08;97325.84;;;27.12;51.61
71915;BME280;60387;49.994;14.660;2023-07-30T10:09:45;97316.38;;;27.35;51.60
71915;BME280;60387;49.994;14.660;2023-07-30T10:12:27;97314.06;;;27.57;50.71
71915;BME280;60387;49.994;14.660;2023-07-30T10:15:01;97315.75;;;27.77;50.16
71915;BME280;60387;49.994;14.660;2023-07-30T10:17:35;97322.53;;;27.99;50.21
71915;BME280;60387;49.994;14.660;2023-07-30T10:20:38;97317.59;;;28.30;49.15
71915;BME280;60387;49.994;14.660;2023-07-30T10:23:11;97317.34;;;28.44;49.12
71915;BME280;60387;49.994;14.660;2023-07-30T10:25:52;97311.44;;;28.61;48.84
71915;BME280;60387;49.994;14.660;2023-07-30T10:31:07;97320.44;;;28.88;47.26
71915;BME280;60387;49.994;14.660;2023-07-30T10:33:51;97312.84;;;29.08;47.77
71915;BME280;60387;49.994;14.660;2023-07-30T10:36:41;97321.91;;;29.32;45.66
71915;BME280;60387;49.994;14.660;2023-07-30T10:39:25;97312.41;;;29.45;45.86
71915;BME280;60387;49.994;14.660;2023-07-30T10:42:00;97312.97;;;29.72;46.74
71915;BME280;60387;49.994;14.660;2023-07-30T10:44:34;97321.00;;;30.18;46.05
71915;BME280;60387;49.994;14.660;2023-07-30T10:47:08;97311.91;;;30.59;44.81
71915;BME280;60387;49.994;14.660;2023-07-30T10:49:41;97311.16;;;30.99;43.10
71915;BME280;60387;49.994;14.660;2023-07-30T10:52:14;97314.47;;;31.35;43.08
71915;BME280;60387;49.994;14.660;2023-07-30T10:54:48;97301.94;;;31.64;42.39
71915;BME280;60387;49.994;14.660;2023-07-30T10:57:21;97312.44;;;31.98;42.67
71915;BME280;60387;49.994;14.660;2023-07-30T10:59:54;97299.19;;;32.23;41.74
71915;BME280;60387;49.994;14.660;2023-07-30T11:02:28;97301.91;;;32.48;41.23
71915;BME280;60387;49.994;14.660;2023-07-30T11:05:12;97296.38;;;32.57;40.20
71915;BME280;60387;49.994;14.660;2023-07-30T11:07:51;97292.03;;;32.78;39.52
71915;BME280;60387;49.994;14.660;2023-07-30T11:10:25;97290.03;;;33.09;41.14
71915;BME280;60387;49.994;14.660;2023-07-30T11:12:58;97292.22;;;33.35;38.04
71915;BME280;60387;49.994;14.660;2023-07-30T11:15:31;97288.53;;;33.47;38.51
71915;BME280;60387;49.994;14.660;2023-07-30T11:18:05;97296.38;;;33.61;39.50
71915;BME280;60387;49.994;14.660;2023-07-30T11:20:38;97289.59;;;33.80;38.94
71915;BME280;60387;49.994;14.660;2023-07-30T11:23:22;97290.75;;;34.10;37.75
71915;BME280;60387;49.994;14.660;2023-07-30T11:25:55;97295.16;;;34.20;36.80
71915;BME280;60387;49.994;14.660;2023-07-30T11:31:12;97287.94;;;34.10;37.45
71915;BME280;60387;49.994;14.660;2023-07-30T11:33:47;97294.38;;;34.10;37.07
71915;BME280;60387;49.994;14.660;2023-07-30T11:36:22;97284.50;;;33.97;35.29
71915;BME280;60387;49.994;14.660;2023-07-30T11:38:57;97284.63;;;33.84;36.13
71915;BME280;60387;49.994;14.660;2023-07-30T11:41:31;97281.00;;;33.75;36.81
71915;BME280;60387;49.994;14.660;2023-07-30T11:44:04;97289.69;;;33.68;36.93
71915;BME280;60387;49.994;14.660;2023-07-30T11:46:37;97283.59;;;33.60;36.34
71915;BME280;60387;49.994;14.660;2023-07-30T11:49:14;97278.25;;;33.53;36.48
71915;BME280;60387;49.994;14.660;2023-07-30T11:51:47;97276.03;;;33.48;37.76
71915;BME280;60387;49.994;14.660;2023-07-30T11:54:22;97274.06;;;33.58;36.74
71915;BME280;60387;49.994;14.660;2023-07-30T11:56:55;97267.91;;;33.81;36.16
71915;BME280;60387;49.994;14.660;2023-07-30T11:59:30;97268.41;;;34.06;36.08
71915;BME280;60387;49.994;14.660;2023-07-30T12:02:04;97271.63;;;34.26;35.00
71915;BME280;60387;49.994;14.660;2023-07-30T12:04:44;97270.81;;;34.44;34.58
71915;BME280;60387;49.994;14.660;2023-07-30T12:07:24;97269.91;;;34.56;34.78
71915;BME280;60387;49.994;14.660;2023-07-30T12:10:11;97266.13;;;34.68;34.30
71915;BME280;60387;49.994;14.660;2023-07-30T12:12:45;97261.25;;;34.68;34.30
71915;BME280;60387;49.994;14.660;2023-07-30T12:15:19;97261.25;;;34.59;34.46
71915;BME280;60387;49.994;14.660;2023-07-30T12:17:52;97262.38;;;34.44;35.19
71915;BME280;60387;49.994;14.660;2023-07-30T12:20:27;97264.88;;;34.24;34.89
71915;BME280;60387;49.994;14.660;2023-07-30T12:23:01;97269.66;;;34.05;35.09
71915;BME280;60387;49.994;14.660;2023-07-30T12:25:34;97263.84;;;33.82;34.99
71915;BME280;60387;49.994;14.660;2023-07-30T12:28:08;97256.59;;;33.63;35.16
71915;BME280;60387;49.994;14.660;2023-07-30T12:30:41;97260.91;;;33.46;35.19
71915;BME280;60387;49.994;14.660;2023-07-30T12:33:14;97255.06;;;33.31;35.90
71915;BME280;60387;49.994;14.660;2023-07-30T12:35:47;97262.66;;;33.22;36.05
71915;BME280;60387;49.994;14.660;2023-07-30T12:38:21;97254.78;;;33.08;36.46
71915;BME280;60387;49.994;14.660;2023-07-30T12:40:54;97251.28;;;32.95;36.77
71915;BME280;60387;49.994;14.660;2023-07-30T12:43:27;97251.50;;;32.79;35.82
71915;BME280;60387;49.994;14.660;2023-07-30T12:46:01;97247.88;;;32.57;35.96
71915;BME280;60387;49.994;14.660;2023-07-30T12:48:34;97239.47;;;32.35;36.63
71915;BME280;60387;49.994;14.660;2023-07-30T12:51:07;97243.00;;;32.27;37.45
71915;BME280;60387;49.994;14.660;2023-07-30T12:53:40;97242.41;;;32.19;37.42
71915;BME280;60387;49.994;14.660;2023-07-30T12:56:15;97245.03;;;32.14;36.54
71915;BME280;60387;49.994;14.660;2023-07-30T12:58:48;97249.31;;;32.06;36.52
71915;BME280;60387;49.994;14.660;2023-07-30T13:01:22;97255.41;;;31.92;36.72
71915;BME280;60387;49.994;14.660;2023-07-30T13:03:55;97261.16;;;31.76;37.11
71915;BME280;60387;49.994;14.660;2023-07-30T13:06:28;97258.38;;;31.51;37.19
71915;BME280;60387;49.994;14.660;2023-07-30T13:09:02;97258.50;;;31.35;37.24
71915;BME280;60387;49.994;14.660;2023-07-30T13:11:35;97259.50;;;31.16;37.89
71915;BME280;60387;49.994;14.660;2023-07-30T13:14:08;97269.53;;;31.01;38.63
71915;BME280;60387;49.994;14.660;2023-07-30T13:16:42;97268.38;;;30.86;38.76
71915;BME280;60387;49.994;14.660;2023-07-30T13:19:15;97274.75;;;30.74;38.84
71915;BME280;60387;49.994;14.660;2023-07-30T13:21:48;97273.47;;;30.63;39.35
71915;BME280;60387;49.994;14.660;2023-07-30T13:24:22;97282.19;;;30.65;39.09
71915;BME280;60387;49.994;14.660;2023-07-30T13:26:55;97276.94;;;30.67;39.14
71915;BME280;60387;49.994;14.660;2023-07-30T13:29:28;97284.38;;;30.73;38.96
71915;BME280;60387;49.994;14.660;2023-07-30T13:32:01;97270.41;;;30.86;39.21